Weather at Standard Industries Airport [CLOSED]

Public forecast

Using degrees Fahrenheit for public forecast. Weather courtesy of forecast.io.

Closest aviation weather report (METAR) to Standard Industries Airport

Closest report is Lackland Air Force Base, 4.9 nm (9.0 km) ENE.

2024/07/20 06:55 (retrieved 24 minutes ago)

KSKF 200655Z AUTO 14006KT 10SM CLR 26/23 A3000 RMK AO2 SLP151 T02610225

Closest aviation forecast (TAF) to Standard Industries Airport

Closest forecast is Stinson Municipal Airport, 9.9 nm (18.3 km) E.

2024/07/20 06:22 (retrieved 57 minutes ago)

TAF KSSF 200520Z 2006/2106 VRB03KT P6SM FEW050 FEW250 FM201900 12008KT P6SM SCT060 FM210400 15006KT P6SM FEW050